createdAt,value
2018-07-17T00:02:28.115Z,3.67
2018-07-17T00:04:56.322Z,3.60
2018-07-17T00:07:24.514Z,3.80
2018-07-17T00:09:52.706Z,3.70
2018-07-17T00:12:20.870Z,3.92
2018-07-17T00:14:49.094Z,4.22
2018-07-17T00:17:17.239Z,4.08
2018-07-17T00:19:45.419Z,4.10
2018-07-17T00:22:13.683Z,3.80
2018-07-17T00:24:42.062Z,4.10
2018-07-17T00:27:10.002Z,3.70
2018-07-17T00:29:38.162Z,3.98
2018-07-17T00:32:06.367Z,3.85
2018-07-17T00:34:34.538Z,3.80
2018-07-17T00:37:02.730Z,4.28
2018-07-17T00:39:30.902Z,4.22
2018-07-17T00:41:59.123Z,4.25
2018-07-17T00:44:27.294Z,4.37
2018-07-17T00:46:55.531Z,3.72
2018-07-17T00:49:23.653Z,4.00
2018-07-17T00:51:51.846Z,3.80
2018-07-17T00:54:20.030Z,3.40
2018-07-17T00:56:48.219Z,4.22
2018-07-17T00:59:16.393Z,4.40
2018-07-17T01:01:49.845Z,4.28
2018-07-17T01:04:23.354Z,3.77
2018-07-17T01:06:57.112Z,4.12
2018-07-17T01:09:30.686Z,4.05
2018-07-17T01:12:04.170Z,3.92
2018-07-17T01:14:35.958Z,4.15
2018-07-17T01:17:04.129Z,3.95
2018-07-17T01:19:32.302Z,4.37
2018-07-17T01:22:00.415Z,3.58
2018-07-17T01:24:28.573Z,4.33
2018-07-17T01:26:56.671Z,4.20
2018-07-17T01:29:24.846Z,4.47
2018-07-17T01:31:52.954Z,4.08
2018-07-17T01:34:21.125Z,4.45
2018-07-17T01:36:49.299Z,4.17
2018-07-17T01:39:17.398Z,3.90
2018-07-17T01:41:45.813Z,3.95
2018-07-17T01:44:16.979Z,4.08
2018-07-17T01:46:46.282Z,4.08
2018-07-17T01:49:14.793Z,4.20
2018-07-17T01:51:42.936Z,3.70
2018-07-17T01:54:11.254Z,4.12
2018-07-17T01:56:39.750Z,3.65
2018-07-17T01:59:08.141Z,3.62
2018-07-17T02:01:36.422Z,4.15
2018-07-17T02:04:04.593Z,3.52
2018-07-17T02:06:32.770Z,3.52
2018-07-17T02:09:00.962Z,3.72
2018-07-17T02:11:29.150Z,3.52
2018-07-17T02:13:57.337Z,3.52
2018-07-17T02:16:25.513Z,4.15
2018-07-17T02:18:53.625Z,4.22
2018-07-17T02:21:21.798Z,4.08
2018-07-17T02:23:49.978Z,4.95
2018-07-17T02:26:18.156Z,4.17
2018-07-17T02:28:46.475Z,4.55
2018-07-17T02:31:14.671Z,4.30
2018-07-17T02:33:42.827Z,4.40
2018-07-17T02:36:11.009Z,4.72
2018-07-17T02:38:39.090Z,4.62
2018-07-17T02:41:07.182Z,4.97
2018-07-17T02:43:35.372Z,4.95
2018-07-17T02:46:03.553Z,4.90
2018-07-17T02:48:31.740Z,4.35
2018-07-17T02:50:59.826Z,4.58
2018-07-17T02:53:28.019Z,4.62
2018-07-17T02:55:56.191Z,5.15
2018-07-17T02:58:24.122Z,5.10
2018-07-17T03:00:52.327Z,5.58
2018-07-17T03:03:20.726Z,4.62
2018-07-17T03:05:48.847Z,4.35
2018-07-17T03:08:16.925Z,5.08
2018-07-17T03:10:45.026Z,5.08
2018-07-17T03:13:13.203Z,5.00
2018-07-17T03:15:41.386Z,4.75
2018-07-17T03:18:09.566Z,4.62
2018-07-17T03:20:37.666Z,4.85
2018-07-17T03:23:05.850Z,4.70
2018-07-17T03:25:34.070Z,4.60
2018-07-17T03:28:02.239Z,4.83
2018-07-17T03:30:30.434Z,4.65
2018-07-17T03:32:58.618Z,4.80
2018-07-17T03:35:26.822Z,4.83
2018-07-17T03:37:54.990Z,4.90
2018-07-17T03:40:23.182Z,4.78
2018-07-17T03:42:51.369Z,4.97
2018-07-17T03:45:19.665Z,4.12
2018-07-17T03:47:47.841Z,4.60
2018-07-17T03:50:17.061Z,4.70
2018-07-17T03:52:45.582Z,4.67
2018-07-17T03:55:13.749Z,4.40
2018-07-17T03:57:41.922Z,4.60
2018-07-17T04:00:10.150Z,4.70
2018-07-17T04:02:38.290Z,4.40
2018-07-17T04:05:06.492Z,4.72
2018-07-17T04:07:34.658Z,5.30
2018-07-17T04:10:02.893Z,5.33
2018-07-17T04:12:31.035Z,4.70
2018-07-17T04:14:59.238Z,5.05
2018-07-17T04:17:27.416Z,4.70
2018-07-17T04:19:55.610Z,5.20
2018-07-17T04:22:23.781Z,4.92
2018-07-17T04:24:51.960Z,4.80
2018-07-17T04:27:20.138Z,4.95
2018-07-17T04:29:48.253Z,5.35
2018-07-17T04:32:16.516Z,4.70
2018-07-17T04:34:44.705Z,5.17
2018-07-17T04:37:12.890Z,4.78
2018-07-17T04:39:40.974Z,5.08
2018-07-17T04:42:09.159Z,4.90
2018-07-17T04:44:37.249Z,5.17
2018-07-17T04:47:05.659Z,4.92
2018-07-17T04:49:33.823Z,5.33
2018-07-17T04:52:01.890Z,4.60
2018-07-17T04:54:30.005Z,5.17
2018-07-17T04:56:58.192Z,4.95
2018-07-17T04:59:26.366Z,4.97
2018-07-17T05:01:54.652Z,5.05
2018-07-17T05:04:22.765Z,4.95
2018-07-17T05:06:50.938Z,5.25
2018-07-17T05:09:19.123Z,4.85
2018-07-17T05:11:47.293Z,4.92
2018-07-17T05:14:15.489Z,5.22
2018-07-17T05:16:43.662Z,5.10
2018-07-17T05:19:11.757Z,4.85
2018-07-17T05:21:39.942Z,4.70
2018-07-17T05:24:08.127Z,4.62
2018-07-17T05:26:36.341Z,4.50
2018-07-17T05:29:04.644Z,4.72
2018-07-17T05:31:32.685Z,4.20
2018-07-17T05:34:00.911Z,4.22
2018-07-17T05:36:29.066Z,3.90
2018-07-17T05:38:57.266Z,4.17
2018-07-17T05:41:25.356Z,4.33
2018-07-17T05:43:53.510Z,3.80
2018-07-17T05:46:21.635Z,5.05
2018-07-17T05:48:49.826Z,7.53
2018-07-17T05:51:18.074Z,7.08
2018-07-17T05:53:46.271Z,9.58
2018-07-17T05:56:14.471Z,8.53
2018-07-17T05:58:42.646Z,7.85
2018-07-17T06:01:10.837Z,6.80
2018-07-17T06:03:39.141Z,8.45
2018-07-17T06:06:07.306Z,6.90
2018-07-17T06:08:35.506Z,5.55
2018-07-17T06:11:03.706Z,5.67
2018-07-17T06:13:31.857Z,8.10
2018-07-17T06:15:59.958Z,8.28
2018-07-17T06:18:28.029Z,8.05
2018-07-17T06:20:56.117Z,6.78
2018-07-17T06:23:24.250Z,7.28
2018-07-17T06:25:52.403Z,6.90
2018-07-17T06:28:20.582Z,6.78
2018-07-17T06:30:48.670Z,7.30
2018-07-17T06:33:16.843Z,6.90
2018-07-17T06:35:44.952Z,7.42
2018-07-17T06:38:13.123Z,6.78
2018-07-17T06:40:41.206Z,6.60
2018-07-17T06:43:09.385Z,6.12
2018-07-17T06:45:37.483Z,5.60
2018-07-17T06:48:05.685Z,6.25
2018-07-17T06:50:33.936Z,6.37
2018-07-17T06:53:02.034Z,5.75
2018-07-17T06:55:30.132Z,6.92
2018-07-17T06:57:58.322Z,7.70
2018-07-17T07:00:26.507Z,6.62
2018-07-17T07:02:54.738Z,6.80
2018-07-17T07:05:22.902Z,4.80
2018-07-17T07:07:51.058Z,7.53
2018-07-17T07:10:20.174Z,7.30
2018-07-17T07:12:48.362Z,7.15
2018-07-17T07:15:16.561Z,6.62
2018-07-17T07:17:44.726Z,6.05
2018-07-17T07:20:13.020Z,5.45
2018-07-17T07:22:41.329Z,6.12
2018-07-17T07:25:09.513Z,5.30
2018-07-17T07:27:37.705Z,5.08
2018-07-17T07:30:06.566Z,5.55
2018-07-17T07:32:34.741Z,4.90
2018-07-17T07:35:02.873Z,4.60
2018-07-17T07:37:31.065Z,4.08
2018-07-17T07:39:59.246Z,4.30
2018-07-17T07:42:27.490Z,4.17
2018-07-17T07:44:55.623Z,4.30
2018-07-17T07:47:23.823Z,3.83
2018-07-17T07:49:52.000Z,4.08
2018-07-17T07:52:20.214Z,3.98
2018-07-17T07:54:48.378Z,4.28
2018-07-17T07:57:16.669Z,3.77
2018-07-17T07:59:44.838Z,3.72
2018-07-17T08:02:13.034Z,3.83
2018-07-17T08:04:41.251Z,3.58
2018-07-17T08:07:09.330Z,3.37
2018-07-17T08:09:37.490Z,3.50
2018-07-17T08:12:05.705Z,3.83
2018-07-17T08:14:33.865Z,3.22
2018-07-17T08:17:02.101Z,3.70
2018-07-17T08:19:31.258Z,3.72
2018-07-17T08:21:59.449Z,3.37
2018-07-17T08:24:27.627Z,3.33
2018-07-17T08:26:55.730Z,3.67
2018-07-17T08:29:23.909Z,3.52
2018-07-17T08:31:52.097Z,3.17
2018-07-17T08:34:20.286Z,3.60
2018-07-17T08:36:48.385Z,2.80
2018-07-17T08:39:16.670Z,3.25
2018-07-17T08:41:44.846Z,3.05
2018-07-17T08:44:13.034Z,2.90
2018-07-17T08:46:41.141Z,3.00
2018-07-17T08:49:09.282Z,3.17
2018-07-17T08:51:37.385Z,3.00
2018-07-17T08:54:05.946Z,3.15
2018-07-17T08:56:34.070Z,2.95
2018-07-17T08:59:02.246Z,2.55
2018-07-17T09:01:30.469Z,2.83
2018-07-17T09:03:58.633Z,2.83
2018-07-17T09:06:26.821Z,2.72
2018-07-17T09:08:55.006Z,2.47
2018-07-17T09:11:23.105Z,2.80
2018-07-17T09:13:51.274Z,2.60
2018-07-17T09:16:19.493Z,2.55
2018-07-17T09:18:47.649Z,2.83
2018-07-17T09:21:15.859Z,2.85
2018-07-17T09:23:44.013Z,2.75
2018-07-17T09:26:13.446Z,2.67
2018-07-17T09:28:41.968Z,2.92
2018-07-17T09:31:10.119Z,2.90
2018-07-17T09:33:38.334Z,3.30
2018-07-17T09:36:06.490Z,2.67
2018-07-17T09:38:34.641Z,2.90
2018-07-17T09:41:02.764Z,2.70
2018-07-17T09:43:30.957Z,2.87
2018-07-17T09:45:59.134Z,2.90
2018-07-17T09:48:27.326Z,3.10
2018-07-17T09:50:55.514Z,2.98
2018-07-17T09:53:23.735Z,3.37
2018-07-17T09:55:51.970Z,2.67
2018-07-17T09:58:20.182Z,3.65
2018-07-17T10:00:53.890Z,2.75
2018-07-17T10:03:22.083Z,3.08
2018-07-17T10:05:50.194Z,2.65
2018-07-17T10:08:18.355Z,1.82
2018-07-17T10:10:46.733Z,2.40
2018-07-17T10:13:14.933Z,2.40
2018-07-17T10:15:43.121Z,2.95
2018-07-17T10:18:11.509Z,2.50
2018-07-17T10:20:39.692Z,2.40
2018-07-17T10:23:07.873Z,2.02
2018-07-17T10:25:36.057Z,2.02
2018-07-17T10:28:04.261Z,2.92
2018-07-17T10:30:32.433Z,2.67
2018-07-17T10:33:00.625Z,2.25
2018-07-17T10:35:28.818Z,2.45
2018-07-17T10:37:57.001Z,2.30
2018-07-17T10:40:25.186Z,2.05
2018-07-17T10:42:53.501Z,1.90
2018-07-17T10:45:21.659Z,1.95
2018-07-17T10:47:49.854Z,1.75
2018-07-17T10:50:19.057Z,2.37
2018-07-17T10:52:47.265Z,1.92
2018-07-17T10:55:16.770Z,2.10
2018-07-17T10:57:44.954Z,1.70
2018-07-17T11:00:13.127Z,2.15
2018-07-17T11:02:41.358Z,1.70
2018-07-17T11:05:09.511Z,1.70
2018-07-17T11:07:37.714Z,1.92
2018-07-17T11:10:05.998Z,1.57
2018-07-17T11:12:34.182Z,2.10
2018-07-17T11:15:02.358Z,2.15
2018-07-17T11:17:30.554Z,1.72
2018-07-17T11:19:58.728Z,1.90
2018-07-17T11:22:26.925Z,1.87
2018-07-17T11:24:55.102Z,2.02
2018-07-17T11:27:23.306Z,1.90
2018-07-17T11:29:51.494Z,1.35
2018-07-17T11:32:19.918Z,1.82
2018-07-17T11:34:48.098Z,2.08
2018-07-17T11:37:16.286Z,1.92
2018-07-17T11:39:44.438Z,1.85
2018-07-17T11:42:12.638Z,2.08
2018-07-17T11:44:40.806Z,1.70
2018-07-17T11:47:08.994Z,1.52
2018-07-17T11:49:37.186Z,2.02
2018-07-17T11:52:05.388Z,2.00
2018-07-17T11:54:33.562Z,1.72
2018-07-17T11:57:01.846Z,2.02
2018-07-17T11:59:30.187Z,1.90
2018-07-17T12:01:58.209Z,1.90
2018-07-17T12:04:26.457Z,1.70
2018-07-17T12:06:55.008Z,1.70
2018-07-17T12:09:23.198Z,1.65
2018-07-17T12:11:51.411Z,1.75
2018-07-17T12:14:19.600Z,2.12
2018-07-17T12:16:47.746Z,2.40
2018-07-17T12:19:15.950Z,2.25
2018-07-17T12:21:44.121Z,2.35
2018-07-17T12:24:12.318Z,2.27
2018-07-17T12:26:40.494Z,1.90
2018-07-17T12:29:08.689Z,1.82
2018-07-17T12:31:36.870Z,2.10
2018-07-17T12:34:05.439Z,1.85
2018-07-17T12:36:33.545Z,1.90
2018-07-17T12:39:01.651Z,2.33
2018-07-17T12:41:29.822Z,2.50
2018-07-17T12:43:58.122Z,2.05
2018-07-17T12:46:26.295Z,1.90
2018-07-17T12:48:54.489Z,1.90
2018-07-17T12:51:22.670Z,2.15
2018-07-17T12:53:50.874Z,2.30
2018-07-17T12:56:19.073Z,1.80
2018-07-17T12:58:47.345Z,2.20
2018-07-17T13:01:15.534Z,2.00
2018-07-17T13:03:43.718Z,1.72
2018-07-17T13:06:11.899Z,1.42
2018-07-17T13:08:40.083Z,1.60
2018-07-17T13:11:08.481Z,1.62
2018-07-17T13:13:36.658Z,1.80
2018-07-17T13:16:04.846Z,1.80
2018-07-17T13:18:32.954Z,2.20
2018-07-17T13:21:01.127Z,2.00
2018-07-17T13:23:29.426Z,1.75
2018-07-17T13:25:57.565Z,1.72
2018-07-17T13:28:25.663Z,1.80
2018-07-17T13:30:54.074Z,1.67
2018-07-17T13:33:22.234Z,1.37
2018-07-17T13:35:50.417Z,1.42
2018-07-17T13:38:18.745Z,1.67
2018-07-17T13:40:46.890Z,1.42
2018-07-17T13:43:14.994Z,1.75
2018-07-17T13:45:43.159Z,1.45
2018-07-17T13:48:11.250Z,2.20
2018-07-17T13:50:39.450Z,1.50
2018-07-17T13:53:07.647Z,2.05
2018-07-17T13:55:36.192Z,1.52
2018-07-17T13:58:04.462Z,1.70
2018-07-17T14:00:32.599Z,1.47
2018-07-17T14:03:01.023Z,1.62
2018-07-17T14:05:29.174Z,1.55
2018-07-17T14:07:57.349Z,1.30
2018-07-17T14:10:25.476Z,1.42
2018-07-17T14:12:53.633Z,1.55
2018-07-17T14:15:21.723Z,1.27
2018-07-17T14:17:49.897Z,1.60
2018-07-17T14:20:18.065Z,1.47
2018-07-17T14:22:46.172Z,1.60
2018-07-17T14:25:14.377Z,1.65
2018-07-17T14:27:42.586Z,1.70
2018-07-17T14:30:10.804Z,1.32
2018-07-17T14:32:38.921Z,1.50
2018-07-17T14:35:07.018Z,1.50
2018-07-17T14:37:35.198Z,1.50
2018-07-17T14:40:03.378Z,1.40
2018-07-17T14:42:31.489Z,1.32
2018-07-17T14:44:59.645Z,1.55
2018-07-17T14:47:27.747Z,2.22
2018-07-17T14:49:55.922Z,2.08
2018-07-17T14:52:24.066Z,2.40
2018-07-17T14:54:52.248Z,2.45
2018-07-17T14:57:20.397Z,2.37
2018-07-17T14:59:48.570Z,2.40
2018-07-17T15:02:16.867Z,2.50
2018-07-17T15:04:45.066Z,2.70
2018-07-17T15:07:13.234Z,2.35
2018-07-17T15:09:41.485Z,2.10
2018-07-17T15:12:09.602Z,2.50
2018-07-17T15:14:37.678Z,1.92
2018-07-17T15:17:05.882Z,2.42
2018-07-17T15:19:34.086Z,3.22
2018-07-17T15:22:02.487Z,2.60
2018-07-17T15:24:30.670Z,2.83
2018-07-17T15:26:58.910Z,2.33
2018-07-17T15:29:27.051Z,2.40
2018-07-17T15:31:55.236Z,2.35
2018-07-17T15:34:23.423Z,2.30
2018-07-17T15:36:51.609Z,2.30
2018-07-17T15:39:19.814Z,2.12
2018-07-17T15:41:47.981Z,2.52
2018-07-17T15:44:16.155Z,2.22
2018-07-17T15:46:44.284Z,2.25
2018-07-17T15:49:12.433Z,2.40
2018-07-17T15:51:40.580Z,2.10
2018-07-17T15:54:08.705Z,2.55
2018-07-17T15:56:36.806Z,2.50
2018-07-17T15:59:04.994Z,2.25
2018-07-17T16:01:33.206Z,2.30
2018-07-17T16:04:01.345Z,2.30
2018-07-17T16:06:29.544Z,2.42
2018-07-17T16:08:57.717Z,2.52
2018-07-17T16:11:25.913Z,2.30
2018-07-17T16:13:54.255Z,2.30
2018-07-17T16:16:22.262Z,2.15
2018-07-17T16:18:50.347Z,2.00
2018-07-17T16:21:18.564Z,2.00
2018-07-17T16:23:46.918Z,2.50
2018-07-17T16:26:15.122Z,2.22
2018-07-17T16:28:43.294Z,2.10
2018-07-17T16:31:11.373Z,2.12
2018-07-17T16:33:39.469Z,2.40
2018-07-17T16:36:07.647Z,1.90
2018-07-17T16:38:35.823Z,1.90
2018-07-17T16:41:03.922Z,2.42
2018-07-17T16:43:32.113Z,1.90
2018-07-17T16:46:00.285Z,2.00
2018-07-17T16:48:28.382Z,1.95
2018-07-17T16:50:56.574Z,2.37
2018-07-17T16:53:24.758Z,2.20
2018-07-17T16:55:52.939Z,1.52
2018-07-17T16:58:21.033Z,1.55
2018-07-17T17:00:49.259Z,1.37
2018-07-17T17:03:17.409Z,1.60
2018-07-17T17:05:45.578Z,1.57
2018-07-17T17:08:13.670Z,1.47
2018-07-17T17:10:42.267Z,1.50
2018-07-17T17:13:10.449Z,1.27
2018-07-17T17:15:38.630Z,1.25
2018-07-17T17:18:06.830Z,1.30
2018-07-17T17:20:35.013Z,1.10
2018-07-17T17:23:03.105Z,1.40
2018-07-17T17:25:31.280Z,1.92
2018-07-17T17:27:59.387Z,1.55
2018-07-17T17:30:27.554Z,1.60
2018-07-17T17:32:55.724Z,1.60
2018-07-17T17:35:23.822Z,1.60
2018-07-17T17:37:51.930Z,1.70
2018-07-17T17:40:20.098Z,1.42
2018-07-17T17:42:48.290Z,1.90
2018-07-17T17:45:16.465Z,1.45
2018-07-17T17:47:44.566Z,1.30
2018-07-17T17:50:13.652Z,1.85
2018-07-17T17:52:41.754Z,1.37
2018-07-17T17:55:09.838Z,1.62
2018-07-17T17:57:38.166Z,1.22
2018-07-17T18:00:06.498Z,1.60
2018-07-17T18:02:34.421Z,1.52
2018-07-17T18:05:02.587Z,1.60
2018-07-17T18:07:30.778Z,1.82
2018-07-17T18:09:58.965Z,1.70
2018-07-17T18:12:27.058Z,1.60
2018-07-17T18:14:55.227Z,1.80
2018-07-17T18:17:23.438Z,1.50
2018-07-17T18:19:51.738Z,1.85
2018-07-17T18:22:19.798Z,1.60
2018-07-17T18:24:47.973Z,1.62
2018-07-17T18:27:16.074Z,3.90
2018-07-17T18:29:44.242Z,1.85
2018-07-17T18:32:12.434Z,1.80
2018-07-17T18:34:40.625Z,1.72
2018-07-17T18:37:08.801Z,2.00
2018-07-17T18:39:36.990Z,1.90
2018-07-17T18:42:05.211Z,1.95
2018-07-17T18:44:33.273Z,2.10
2018-07-17T18:47:02.261Z,1.82
2018-07-17T18:49:30.360Z,1.95
2018-07-17T18:51:58.533Z,2.00
2018-07-17T18:54:26.629Z,1.90
2018-07-17T18:56:54.801Z,2.00
2018-07-17T18:59:22.900Z,1.85
2018-07-17T19:01:51.082Z,1.80
2018-07-17T19:04:19.277Z,1.90
2018-07-17T19:06:47.446Z,1.50
2018-07-17T19:09:15.662Z,1.98
2018-07-17T19:11:43.854Z,1.90
2018-07-17T19:14:12.050Z,1.57
2018-07-17T19:16:40.212Z,1.77
2018-07-17T19:19:08.423Z,2.25
2018-07-17T19:21:36.570Z,1.87
2018-07-17T19:24:04.670Z,2.17
2018-07-17T19:26:32.882Z,2.33
2018-07-17T19:29:01.049Z,2.27
2018-07-17T19:31:29.218Z,1.85
2018-07-17T19:33:57.310Z,2.37
2018-07-17T19:36:25.501Z,1.92
2018-07-17T19:38:53.711Z,2.20
2018-07-17T19:41:21.869Z,2.15
2018-07-17T19:43:50.617Z,2.33
2018-07-17T19:46:18.893Z,2.12
2018-07-17T19:48:47.046Z,2.33
2018-07-17T19:51:15.365Z,2.12
2018-07-17T19:53:43.524Z,1.75
2018-07-17T19:56:11.698Z,2.62
2018-07-17T19:58:39.790Z,2.15
2018-07-17T20:01:07.978Z,2.47
2018-07-17T20:03:36.301Z,2.70
2018-07-17T20:06:04.498Z,2.83
2018-07-17T20:08:32.671Z,2.52
2018-07-17T20:11:00.838Z,2.62
2018-07-17T20:13:29.016Z,2.47
2018-07-17T20:15:57.194Z,2.85
2018-07-17T20:18:25.414Z,2.62
2018-07-17T20:20:53.610Z,2.42
2018-07-17T20:23:21.794Z,2.40
2018-07-17T20:25:49.966Z,2.55
2018-07-17T20:28:18.168Z,3.00
2018-07-17T20:30:46.341Z,2.90
2018-07-17T20:33:14.670Z,2.70
2018-07-17T20:35:42.922Z,2.90
2018-07-17T20:38:11.129Z,2.77
2018-07-17T20:40:39.558Z,3.05
2018-07-17T20:43:07.698Z,2.72
2018-07-17T20:45:35.897Z,2.75
2018-07-17T20:48:04.062Z,2.67
2018-07-17T20:50:32.254Z,2.60
2018-07-17T20:53:01.556Z,2.47
2018-07-17T20:55:29.657Z,2.40
2018-07-17T20:57:57.833Z,3.00
2018-07-17T21:00:26.026Z,2.72
2018-07-17T21:02:54.205Z,2.77
2018-07-17T21:05:22.403Z,3.10
2018-07-17T21:07:50.586Z,2.42
2018-07-17T21:10:19.798Z,2.67
2018-07-17T21:12:47.985Z,2.62
2018-07-17T21:15:16.173Z,2.52
2018-07-17T21:17:44.371Z,2.60
2018-07-17T21:20:13.551Z,2.62
2018-07-17T21:22:41.742Z,2.70
2018-07-17T21:25:10.134Z,2.50
2018-07-17T21:27:38.206Z,2.60
2018-07-17T21:30:06.393Z,2.47
2018-07-17T21:32:34.570Z,2.20
2018-07-17T21:35:02.714Z,2.30
2018-07-17T21:37:30.854Z,2.40
2018-07-17T21:39:59.038Z,2.20
2018-07-17T21:42:27.218Z,2.42
2018-07-17T21:44:55.311Z,2.35
2018-07-17T21:47:23.486Z,2.50
2018-07-17T21:49:51.582Z,2.60
2018-07-17T21:52:19.767Z,2.50
2018-07-17T21:54:47.954Z,2.20
2018-07-17T21:57:16.161Z,2.10
2018-07-17T21:59:44.347Z,2.42
2018-07-17T22:02:12.643Z,2.27
2018-07-17T22:04:40.830Z,2.42
2018-07-17T22:07:08.980Z,2.02
2018-07-17T22:09:37.066Z,2.02
2018-07-17T22:12:05.146Z,2.50
2018-07-17T22:14:33.237Z,2.10
2018-07-17T22:17:01.426Z,2.22
2018-07-17T22:19:29.518Z,2.35
2018-07-17T22:21:57.706Z,2.20
2018-07-17T22:24:25.902Z,2.15
2018-07-17T22:26:54.073Z,2.45
2018-07-17T22:29:22.162Z,2.20
2018-07-17T22:31:50.334Z,2.45
2018-07-17T22:34:18.434Z,2.08
2018-07-17T22:36:46.635Z,2.20
2018-07-17T22:39:14.806Z,2.77
2018-07-17T22:41:42.985Z,2.22
2018-07-17T22:44:11.190Z,2.27
2018-07-17T22:46:39.407Z,2.40
2018-07-17T22:49:07.578Z,2.60
2018-07-17T22:51:35.778Z,2.15
2018-07-17T22:54:03.913Z,2.30
2018-07-17T22:56:32.047Z,1.80
2018-07-17T22:59:00.107Z,2.00
2018-07-17T23:01:28.283Z,1.85
2018-07-17T23:03:56.467Z,2.20
2018-07-17T23:06:24.650Z,2.12
2018-07-17T23:08:52.826Z,2.05
2018-07-17T23:11:20.933Z,1.95
2018-07-17T23:13:49.124Z,1.80
2018-07-17T23:16:17.320Z,2.08
2018-07-17T23:18:45.483Z,2.25
2018-07-17T23:21:13.674Z,2.20
2018-07-17T23:23:41.854Z,2.10
2018-07-17T23:26:09.974Z,2.17
2018-07-17T23:28:38.134Z,2.05
2018-07-17T23:31:06.316Z,1.75
2018-07-17T23:33:34.502Z,1.98
2018-07-17T23:36:02.693Z,2.05
2018-07-17T23:38:30.873Z,2.37
2018-07-17T23:40:59.066Z,2.30
2018-07-17T23:43:27.237Z,2.20
2018-07-17T23:45:55.343Z,2.05
2018-07-17T23:48:23.522Z,2.05
2018-07-17T23:50:51.614Z,2.33
2018-07-17T23:53:19.786Z,2.35
2018-07-17T23:55:47.884Z,2.15
2018-07-17T23:58:16.057Z,2.12
